Troicko-Pecherskoe, Russia
Current Conditions -  °F | °C
As of 11:00 PM on Tuesday 21 Oct 2014 (Local Time) from UUYY Reporting Station
Clear Clear  
Wind Chill: -5°   Ceiling: Unl
Heat Index:   Visibility: 6mi
Dew Point:   Wind: 7mph
Humidity: 79%   Direction: 10°N
Pressure: 29.94"   Gusts: NA
Location:  62.7°N, 56.2°E
Report Text: UUYY 212000Z 01003MPS CAVOK M14/M17 Q1014 NOSIG 01CLRD61 RMKQFE751/1001
Loading
Personal Weather Stations






























Interactive Weather Map
Tropical Storm Tracking
New forecast layout! Learn more

10-Day Weather Forecast

Advertisements
Track Severe Weather on mobile